createdAt,value
2018-03-21T00:02:16.440Z,90.70
2018-03-21T00:04:43.896Z,90.70
2018-03-21T00:07:11.352Z,90.90
2018-03-21T00:09:39.011Z,91.20
2018-03-21T00:12:06.456Z,91.20
2018-03-21T00:14:33.897Z,90.90
2018-03-21T00:17:01.347Z,91.10
2018-03-21T00:19:28.776Z,91.20
2018-03-21T00:21:56.225Z,91.10
2018-03-21T00:24:23.672Z,91.10
2018-03-21T00:26:51.128Z,91.10
2018-03-21T00:29:18.572Z,90.90
2018-03-21T00:31:46.142Z,90.60
2018-03-21T00:34:13.584Z,90.70
2018-03-21T00:36:41.057Z,90.80
2018-03-21T00:39:08.484Z,90.70
2018-03-21T00:41:35.941Z,91.10
2018-03-21T00:44:04.138Z,91.50
2018-03-21T00:46:32.184Z,91.40
2018-03-21T00:48:59.612Z,91.60
2018-03-21T00:51:27.060Z,91.90
2018-03-21T00:53:54.524Z,92.00
2018-03-21T00:56:21.983Z,91.90
2018-03-21T00:58:49.416Z,91.80
2018-03-21T01:01:16.896Z,91.80
2018-03-21T01:03:44.332Z,92.00
2018-03-21T01:06:11.800Z,92.20
2018-03-21T01:08:39.237Z,92.30
2018-03-21T01:11:06.676Z,92.00
2018-03-21T01:13:37.538Z,92.00
2018-03-21T01:16:04.996Z,91.70
2018-03-21T01:18:32.431Z,91.90
2018-03-21T01:20:59.886Z,91.90
2018-03-21T01:23:27.322Z,91.90
2018-03-21T01:25:54.767Z,91.60
2018-03-21T01:28:22.971Z,91.80
2018-03-21T01:30:50.434Z,91.70
2018-03-21T01:33:17.876Z,91.90
2018-03-21T01:35:45.324Z,92.00
2018-03-21T01:38:13.559Z,92.40
2018-03-21T01:40:41.005Z,92.40
2018-03-21T01:43:08.432Z,92.60
2018-03-21T01:45:35.895Z,92.80
2018-03-21T01:48:03.345Z,93.00
2018-03-21T01:50:30.796Z,92.90
2018-03-21T01:53:11.629Z,92.90
2018-03-21T01:55:39.072Z,92.90
2018-03-21T01:58:06.524Z,92.90
2018-03-21T02:00:33.988Z,92.90
2018-03-21T02:03:01.424Z,93.00
2018-03-21T02:05:28.859Z,93.10
2018-03-21T02:07:56.303Z,93.00
2018-03-21T02:10:23.742Z,93.20
2018-03-21T02:12:51.966Z,92.80
2018-03-21T02:15:19.404Z,92.80
2018-03-21T02:17:46.860Z,92.80
2018-03-21T02:20:17.580Z,92.60
2018-03-21T02:22:45.025Z,92.50
2018-03-21T02:25:13.245Z,92.20
2018-03-21T02:27:40.711Z,92.10
2018-03-21T02:30:08.140Z,92.00
2018-03-21T02:32:35.584Z,92.00
2018-03-21T02:35:03.038Z,91.90
2018-03-21T02:37:30.480Z,91.80
2018-03-21T02:39:57.943Z,91.80
2018-03-21T02:42:25.414Z,91.70
2018-03-21T02:44:52.853Z,91.70
2018-03-21T02:47:20.307Z,91.60
2018-03-21T02:49:48.520Z,91.40
2018-03-21T02:52:15.973Z,91.40
2018-03-21T02:54:43.437Z,91.60
2018-03-21T02:57:10.868Z,91.70
2018-03-21T02:59:39.094Z,92.00
2018-03-21T03:02:06.528Z,92.00
2018-03-21T03:04:33.996Z,92.10
2018-03-21T03:07:01.453Z,92.10
2018-03-21T03:09:28.922Z,92.10
2018-03-21T03:11:56.363Z,92.10
2018-03-21T03:14:23.824Z,91.90
2018-03-21T03:16:51.271Z,91.80
2018-03-21T03:19:18.728Z,91.60
2018-03-21T03:21:46.178Z,91.60
2018-03-21T03:24:13.616Z,91.50
2018-03-21T03:26:41.097Z,91.60
2018-03-21T03:29:08.532Z,91.60
2018-03-21T03:31:35.993Z,91.70
2018-03-21T03:34:03.445Z,91.80
2018-03-21T03:36:30.872Z,91.60
2018-03-21T03:38:58.330Z,91.50
2018-03-21T03:41:26.087Z,91.50
2018-03-21T03:43:53.627Z,91.40
2018-03-21T03:46:21.080Z,91.30
2018-03-21T03:48:50.039Z,91.30
2018-03-21T03:51:17.496Z,91.20
2018-03-21T03:53:44.931Z,91.20
2018-03-21T03:56:12.391Z,91.30
2018-03-21T03:58:39.870Z,91.20
2018-03-21T04:01:07.305Z,91.00
2018-03-21T04:03:34.760Z,91.20
2018-03-21T04:06:02.195Z,91.80
2018-03-21T04:08:29.657Z,92.10
2018-03-21T04:11:02.961Z,92.30
2018-03-21T04:13:30.424Z,92.30
2018-03-21T04:15:57.871Z,92.40
2018-03-21T04:18:25.311Z,92.30
2018-03-21T04:20:52.769Z,92.30
2018-03-21T04:23:20.212Z,92.50
2018-03-21T04:25:47.669Z,92.60
2018-03-21T04:28:15.107Z,92.80
2018-03-21T04:30:42.547Z,93.50
2018-03-21T04:33:09.997Z,94.00
2018-03-21T04:35:38.211Z,95.10
2018-03-21T04:38:05.673Z,95.00
2018-03-21T04:40:33.103Z,94.80
2018-03-21T04:43:00.544Z,94.70
2018-03-21T04:45:28.757Z,94.60
2018-03-21T04:47:56.221Z,94.60
2018-03-21T04:50:23.679Z,94.20
2018-03-21T04:52:51.135Z,94.00
2018-03-21T04:55:18.586Z,93.90
2018-03-21T04:57:46.046Z,93.90
2018-03-21T05:00:13.500Z,93.90
2018-03-21T05:02:41.706Z,93.80
2018-03-21T05:05:09.159Z,93.80
2018-03-21T05:07:36.622Z,93.80
2018-03-21T05:10:04.064Z,94.00
2018-03-21T05:12:31.507Z,94.00
2018-03-21T05:14:59.032Z,94.00
2018-03-21T05:17:26.467Z,94.30
2018-03-21T05:19:53.916Z,94.00
2018-03-21T05:22:21.380Z,93.70
2018-03-21T05:24:48.815Z,93.60
2018-03-21T05:27:16.257Z,93.40
2018-03-21T05:29:43.701Z,93.30
2018-03-21T05:32:11.168Z,93.10
2018-03-21T05:34:38.609Z,93.10
2018-03-21T05:37:07.722Z,92.50
2018-03-21T05:39:35.151Z,92.10
2018-03-21T05:42:02.642Z,91.60
2018-03-21T05:44:30.075Z,91.20
2018-03-21T05:46:57.532Z,90.70
2018-03-21T05:49:25.817Z,90.40
2018-03-21T05:51:53.280Z,90.00
2018-03-21T05:54:20.732Z,89.80
2018-03-21T05:56:48.218Z,89.20
2018-03-21T05:59:15.624Z,88.10
2018-03-21T06:01:43.056Z,87.60
2018-03-21T06:04:11.282Z,86.90
2018-03-21T06:06:38.717Z,86.80
2018-03-21T06:09:06.192Z,86.00
2018-03-21T06:11:33.654Z,85.40
2018-03-21T06:14:01.096Z,84.90
2018-03-21T06:16:28.552Z,84.70
2018-03-21T06:18:55.991Z,84.40
2018-03-21T06:21:23.468Z,84.00
2018-03-21T06:23:50.920Z,83.10
2018-03-21T06:26:18.380Z,83.10
2018-03-21T06:28:45.831Z,83.10
2018-03-21T06:31:13.297Z,82.60
2018-03-21T06:33:40.753Z,82.00
2018-03-21T06:36:08.189Z,81.50
2018-03-21T06:38:36.408Z,80.20
2018-03-21T06:41:03.843Z,80.20
2018-03-21T06:43:31.564Z,80.00
2018-03-21T06:45:58.992Z,80.20
2018-03-21T06:48:26.436Z,80.30
2018-03-21T06:50:53.924Z,80.20
2018-03-21T06:53:21.381Z,79.70
2018-03-21T06:55:48.874Z,79.70
2018-03-21T06:58:16.323Z,79.50
2018-03-21T07:00:43.863Z,78.70
2018-03-21T07:03:11.290Z,77.70
2018-03-21T07:05:38.946Z,77.00
2018-03-21T07:08:06.403Z,76.40
2018-03-21T07:10:33.863Z,76.20
2018-03-21T07:13:01.332Z,75.40
2018-03-21T07:15:40.564Z,75.00
2018-03-21T07:18:08.008Z,75.20
2018-03-21T07:20:35.464Z,75.90
2018-03-21T07:23:02.924Z,75.60
2018-03-21T07:25:30.380Z,72.90
2018-03-21T07:27:58.036Z,72.00
2018-03-21T07:30:25.471Z,70.70
2018-03-21T07:32:52.934Z,69.40
2018-03-21T07:35:20.371Z,68.10
2018-03-21T07:37:48.590Z,66.80
2018-03-21T07:40:16.036Z,66.80
2018-03-21T07:42:43.552Z,65.50
2018-03-21T07:45:11.018Z,64.00
2018-03-21T07:47:39.246Z,63.80
2018-03-21T07:50:06.697Z,63.60
2018-03-21T07:52:34.164Z,62.80
2018-03-21T07:55:01.603Z,61.30
2018-03-21T07:57:29.040Z,61.00
2018-03-21T07:59:56.500Z,61.00
2018-03-21T08:02:23.939Z,64.60
2018-03-21T08:04:51.410Z,68.00
2018-03-21T08:07:19.628Z,78.60
2018-03-21T08:09:47.077Z,78.50
2018-03-21T08:12:14.741Z,81.80
2018-03-21T08:14:42.208Z,83.50
2018-03-21T08:17:09.668Z,86.00
2018-03-21T08:19:37.213Z,86.60
2018-03-21T08:22:04.726Z,86.50
2018-03-21T08:24:32.941Z,82.70
2018-03-21T08:27:00.435Z,82.80
2018-03-21T08:29:27.909Z,81.60
2018-03-21T08:31:55.396Z,79.90
2018-03-21T08:34:23.066Z,79.10
2018-03-21T08:36:51.274Z,74.60
2018-03-21T08:39:18.764Z,74.50
2018-03-21T08:41:46.986Z,69.60
2018-03-21T08:44:14.462Z,69.50
2018-03-21T08:46:41.918Z,68.70
2018-03-21T08:49:09.366Z,66.00
2018-03-21T08:51:36.836Z,66.40
2018-03-21T08:54:04.284Z,65.70
2018-03-21T08:56:31.761Z,65.50
2018-03-21T08:58:59.215Z,64.00
2018-03-21T09:01:26.681Z,62.10
2018-03-21T09:03:54.116Z,59.80
2018-03-21T09:06:21.598Z,59.10
2018-03-21T09:08:49.040Z,59.70
2018-03-21T09:11:16.492Z,59.10
2018-03-21T09:13:43.979Z,57.80
2018-03-21T09:16:11.441Z,59.20
2018-03-21T09:18:38.917Z,58.90
2018-03-21T09:21:07.190Z,57.90
2018-03-21T09:23:34.679Z,57.80
2018-03-21T09:26:02.195Z,57.50
2018-03-21T09:28:29.682Z,58.00
2018-03-21T09:30:57.237Z,57.30
2018-03-21T09:33:24.694Z,57.20
2018-03-21T09:35:52.393Z,57.70
2018-03-21T09:38:20.100Z,57.40
2018-03-21T09:40:47.544Z,56.80
2018-03-21T09:43:14.987Z,58.00
2018-03-21T09:45:42.429Z,57.90
2018-03-21T09:48:09.878Z,57.50
2018-03-21T09:50:38.087Z,58.00
2018-03-21T09:53:05.541Z,57.90
2018-03-21T09:55:32.991Z,57.10
2018-03-21T09:58:00.443Z,58.50
2018-03-21T10:00:27.964Z,58.40
2018-03-21T10:02:55.400Z,56.80
2018-03-21T10:05:22.956Z,56.10
2018-03-21T10:07:51.169Z,56.10
2018-03-21T10:10:18.594Z,56.00
2018-03-21T10:12:46.061Z,56.90
2018-03-21T10:15:13.508Z,55.40
2018-03-21T10:17:41.789Z,55.00
2018-03-21T10:20:09.222Z,54.90
2018-03-21T10:22:36.684Z,53.70
2018-03-21T10:25:04.911Z,57.10
2018-03-21T10:27:32.358Z,57.00
2018-03-21T10:29:59.792Z,56.00
2018-03-21T10:32:27.277Z,54.00
2018-03-21T10:34:54.716Z,53.40
2018-03-21T10:37:22.173Z,50.60
2018-03-21T10:39:49.656Z,48.90
2018-03-21T10:42:17.119Z,48.30
2018-03-21T10:44:44.996Z,46.10
2018-03-21T10:47:12.482Z,45.70
2018-03-21T10:49:39.942Z,46.60
2018-03-21T10:52:07.407Z,48.30
2018-03-21T10:54:34.855Z,47.10
2018-03-21T10:57:02.295Z,46.10
2018-03-21T10:59:29.736Z,46.30
2018-03-21T11:02:02.974Z,46.20
2018-03-21T11:04:30.421Z,46.20
2018-03-21T11:06:57.899Z,47.40
2018-03-21T11:09:25.367Z,47.50
2018-03-21T11:11:52.811Z,46.60
2018-03-21T11:14:20.247Z,47.50
2018-03-21T11:16:47.703Z,47.40
2018-03-21T11:19:15.914Z,47.10
2018-03-21T11:21:43.373Z,47.00
2018-03-21T11:24:10.845Z,46.10
2018-03-21T11:26:38.294Z,46.00
2018-03-21T11:29:05.928Z,45.40
2018-03-21T11:31:33.427Z,45.10
2018-03-21T11:34:00.900Z,43.90
2018-03-21T11:36:28.349Z,42.60
2018-03-21T11:38:55.847Z,43.40
2018-03-21T11:41:24.064Z,42.70
2018-03-21T11:43:51.547Z,42.70
2018-03-21T11:46:18.987Z,43.10
2018-03-21T11:48:46.440Z,41.90
2018-03-21T11:51:14.038Z,41.20
2018-03-21T11:53:41.459Z,42.00
2018-03-21T11:56:08.903Z,43.10
2018-03-21T11:58:36.354Z,42.70
2018-03-21T12:01:03.821Z,41.40
2018-03-21T12:03:31.284Z,39.30
2018-03-21T12:05:58.746Z,40.60
2018-03-21T12:08:26.205Z,41.20
2018-03-21T12:10:53.668Z,41.90
2018-03-21T12:13:21.114Z,41.50
2018-03-21T12:15:49.460Z,42.30
2018-03-21T12:18:16.927Z,42.30
2018-03-21T12:20:44.401Z,42.00
2018-03-21T12:23:11.879Z,41.50
2018-03-21T12:25:39.331Z,40.90
2018-03-21T12:28:06.838Z,40.40
2018-03-21T12:30:34.518Z,40.10
2018-03-21T12:33:02.019Z,40.30
2018-03-21T12:35:29.488Z,41.60
2018-03-21T12:37:57.019Z,41.80
2018-03-21T12:40:24.550Z,42.00
2018-03-21T12:42:52.756Z,43.90
2018-03-21T12:45:20.275Z,43.80
2018-03-21T12:47:47.768Z,44.70
2018-03-21T12:50:15.252Z,45.50
2018-03-21T12:52:42.697Z,45.80
2018-03-21T12:55:10.193Z,45.00
2018-03-21T12:57:39.597Z,44.80
2018-03-21T13:00:07.021Z,44.70
2018-03-21T13:02:34.493Z,43.90
2018-03-21T13:05:01.968Z,43.80
2018-03-21T13:07:30.200Z,43.50
2018-03-21T13:09:59.340Z,43.50
2018-03-21T13:12:26.869Z,43.90
2018-03-21T13:14:54.324Z,44.20
2018-03-21T13:17:22.980Z,45.20
2018-03-21T13:19:50.435Z,44.10
2018-03-21T13:22:20.080Z,43.40
2018-03-21T13:24:49.354Z,41.10
2018-03-21T13:27:16.831Z,41.10
2018-03-21T13:29:44.283Z,39.80
2018-03-21T13:32:11.778Z,39.20
2018-03-21T13:34:39.198Z,38.90
2018-03-21T13:37:06.724Z,38.10
2018-03-21T13:39:34.208Z,38.00
2018-03-21T13:42:02.285Z,38.80
2018-03-21T13:44:29.939Z,37.40
2018-03-21T13:46:57.372Z,37.20
2018-03-21T13:49:24.838Z,36.80
2018-03-21T13:51:52.326Z,34.80
2018-03-21T13:54:19.807Z,33.40
2018-03-21T13:56:47.250Z,33.50
2018-03-21T13:59:14.702Z,32.20
2018-03-21T14:01:42.196Z,31.70
2018-03-21T14:04:09.687Z,30.40
2018-03-21T14:06:37.382Z,29.00
2018-03-21T14:09:04.866Z,28.50
2018-03-21T14:11:32.395Z,28.20
2018-03-21T14:13:59.800Z,27.70
2018-03-21T14:16:27.269Z,27.40
2018-03-21T14:18:54.700Z,28.00
2018-03-21T14:21:22.191Z,28.40
2018-03-21T14:23:49.672Z,27.10
2018-03-21T14:26:17.332Z,26.70
2018-03-21T14:28:44.799Z,24.10
2018-03-21T14:31:12.277Z,22.30
2018-03-21T14:33:39.831Z,20.10
2018-03-21T14:36:07.338Z,20.10
2018-03-21T14:38:34.813Z,19.80
2018-03-21T14:41:02.271Z,19.10
2018-03-21T14:43:29.741Z,19.30
2018-03-21T14:45:57.876Z,19.30
2018-03-21T14:48:25.353Z,18.90
2018-03-21T14:50:52.828Z,18.20
2018-03-21T14:53:20.294Z,17.80
2018-03-21T14:55:47.799Z,16.60
2018-03-21T14:58:15.228Z,17.00
2018-03-21T15:00:42.705Z,18.10
2018-03-21T15:03:11.019Z,20.20
2018-03-21T15:05:38.458Z,20.10
2018-03-21T15:08:05.930Z,21.80
2018-03-21T15:10:33.396Z,23.00
2018-03-21T15:13:00.856Z,23.80
2018-03-21T15:15:28.324Z,24.90
2018-03-21T15:17:55.759Z,26.30
2018-03-21T15:20:23.330Z,26.10
2018-03-21T15:22:50.781Z,26.00
2018-03-21T15:25:18.302Z,26.40
2018-03-21T15:27:45.717Z,26.00
2018-03-21T15:30:13.174Z,26.60
2018-03-21T15:32:42.066Z,27.10
2018-03-21T15:35:09.553Z,27.00
2018-03-21T15:37:37.000Z,26.60
2018-03-21T15:40:04.507Z,26.20
2018-03-21T15:42:31.964Z,26.40
2018-03-21T15:44:59.408Z,27.00
2018-03-21T15:47:26.909Z,26.70
2018-03-21T15:49:55.797Z,26.70
2018-03-21T15:52:23.850Z,27.50
2018-03-21T15:54:51.375Z,27.70
2018-03-21T15:57:19.592Z,26.90
2018-03-21T15:59:47.036Z,26.90
2018-03-21T16:02:14.493Z,26.70
2018-03-21T16:04:41.981Z,27.10
2018-03-21T16:07:09.455Z,28.00
2018-03-21T16:09:36.904Z,28.60
2018-03-21T16:12:04.386Z,28.90
2018-03-21T16:14:31.858Z,29.30
2018-03-21T16:16:59.428Z,29.20
2018-03-21T16:19:26.899Z,29.50
2018-03-21T16:21:54.400Z,29.50
2018-03-21T16:24:21.855Z,29.60
2018-03-21T16:26:49.292Z,29.70
2018-03-21T16:29:16.772Z,29.90
2018-03-21T16:31:44.236Z,30.80
2018-03-21T16:34:11.708Z,31.30
2018-03-21T16:36:39.151Z,31.20
2018-03-21T16:39:06.626Z,31.20
2018-03-21T16:41:34.832Z,31.90
2018-03-21T16:44:02.300Z,31.90
2018-03-21T16:46:29.755Z,32.80
2018-03-21T16:48:57.238Z,33.00
2018-03-21T16:51:24.700Z,33.00
2018-03-21T16:53:52.185Z,33.20
2018-03-21T16:56:19.624Z,33.80
2018-03-21T16:58:47.061Z,34.20
2018-03-21T17:01:14.529Z,33.80
2018-03-21T17:03:41.981Z,34.10
2018-03-21T17:06:10.206Z,34.30
2018-03-21T17:08:37.683Z,34.90
2018-03-21T17:11:05.167Z,34.00
2018-03-21T17:13:32.628Z,34.20
2018-03-21T17:16:00.080Z,35.20
2018-03-21T17:18:27.558Z,34.80
2018-03-21T17:20:55.819Z,34.90
2018-03-21T17:23:23.281Z,34.80
2018-03-21T17:25:50.732Z,35.10
2018-03-21T17:28:18.164Z,35.80
2018-03-21T17:30:45.636Z,35.80
2018-03-21T17:33:13.071Z,36.20
2018-03-21T17:35:40.616Z,36.20
2018-03-21T17:38:08.088Z,36.50
2018-03-21T17:40:35.553Z,36.80
2018-03-21T17:43:03.093Z,37.00
2018-03-21T17:45:30.536Z,37.50
2018-03-21T17:47:58.003Z,37.70
2018-03-21T17:50:25.476Z,38.30
2018-03-21T17:52:52.933Z,38.10
2018-03-21T17:55:20.409Z,38.10
2018-03-21T17:57:47.857Z,38.00
2018-03-21T18:00:15.379Z,38.70
2018-03-21T18:02:42.783Z,38.90
2018-03-21T18:05:10.314Z,38.70
2018-03-21T18:07:37.748Z,38.70
2018-03-21T18:10:05.201Z,39.00
2018-03-21T18:12:32.638Z,39.00
2018-03-21T18:15:00.081Z,39.30
2018-03-21T18:17:27.512Z,39.40
2018-03-21T18:19:54.965Z,39.60
2018-03-21T18:22:22.408Z,40.10
2018-03-21T18:24:49.863Z,39.80
2018-03-21T18:27:17.300Z,40.10
2018-03-21T18:29:44.748Z,39.90
2018-03-21T18:32:12.199Z,40.50
2018-03-21T18:34:39.632Z,41.90
2018-03-21T18:37:07.077Z,42.90
2018-03-21T18:39:34.542Z,43.70
2018-03-21T18:42:01.996Z,45.00
2018-03-21T18:44:29.472Z,45.90
2018-03-21T18:46:56.936Z,46.20
2018-03-21T18:49:24.400Z,47.00
2018-03-21T18:51:51.840Z,47.70
2018-03-21T18:54:19.341Z,47.90
2018-03-21T18:56:47.552Z,50.00
2018-03-21T18:59:14.998Z,49.30
2018-03-21T19:01:42.437Z,50.50
2018-03-21T19:04:09.883Z,51.50
2018-03-21T19:06:37.312Z,51.60
2018-03-21T19:09:04.765Z,51.40
2018-03-21T19:11:32.204Z,51.70
2018-03-21T19:13:59.724Z,52.40
2018-03-21T19:16:27.163Z,52.90
2018-03-21T19:18:54.592Z,53.50
2018-03-21T19:21:22.036Z,53.90
2018-03-21T19:23:49.483Z,53.80
2018-03-21T19:26:16.927Z,54.40
2018-03-21T19:28:44.362Z,54.40
2018-03-21T19:31:11.820Z,54.30
2018-03-21T19:33:39.324Z,54.30
2018-03-21T19:36:06.777Z,54.50
2018-03-21T19:38:34.224Z,54.30
2018-03-21T19:41:01.657Z,55.10
2018-03-21T19:43:29.132Z,56.30
2018-03-21T19:45:56.590Z,57.00
2018-03-21T19:48:24.024Z,57.30
2018-03-21T19:50:51.481Z,57.30
2018-03-21T19:53:18.916Z,58.10
2018-03-21T19:55:46.380Z,58.30
2018-03-21T19:58:13.831Z,58.90
2018-03-21T20:00:41.255Z,59.30
2018-03-21T20:03:08.712Z,60.60
2018-03-21T20:05:36.195Z,61.60
2018-03-21T20:08:03.620Z,61.70
2018-03-21T20:10:31.063Z,63.40
2018-03-21T20:12:58.504Z,64.90
2018-03-21T20:15:25.948Z,65.80
2018-03-21T20:17:53.503Z,66.60
2018-03-21T20:20:20.944Z,67.10
2018-03-21T20:22:51.438Z,68.70
2018-03-21T20:25:18.905Z,68.50
2018-03-21T20:27:46.356Z,67.80
2018-03-21T20:30:13.826Z,67.90
2018-03-21T20:32:41.251Z,67.70
2018-03-21T20:35:08.697Z,67.70
2018-03-21T20:37:36.153Z,67.00
2018-03-21T20:40:03.606Z,66.80
2018-03-21T20:42:31.040Z,67.50
2018-03-21T20:44:58.493Z,67.80
2018-03-21T20:47:26.699Z,67.60
2018-03-21T20:49:54.136Z,67.50
2018-03-21T20:52:21.603Z,66.70
2018-03-21T20:54:49.049Z,67.40
2018-03-21T20:57:16.564Z,67.70
2018-03-21T20:59:44.008Z,67.60
2018-03-21T21:02:11.460Z,67.70
2018-03-21T21:04:38.916Z,67.40
2018-03-21T21:07:06.375Z,67.30
2018-03-21T21:09:34.565Z,67.00
2018-03-21T21:12:02.015Z,67.00
2018-03-21T21:14:29.452Z,66.70
2018-03-21T21:16:56.917Z,66.60
2018-03-21T21:19:24.356Z,67.00
2018-03-21T21:21:51.987Z,66.90
2018-03-21T21:24:19.447Z,67.00
2018-03-21T21:26:47.655Z,66.20
2018-03-21T21:29:15.100Z,66.10
2018-03-21T21:31:42.549Z,65.80
2018-03-21T21:34:10.013Z,65.40
2018-03-21T21:36:38.037Z,65.70
2018-03-21T21:39:05.493Z,65.80
2018-03-21T21:41:32.940Z,65.40
2018-03-21T21:44:00.398Z,65.60
2018-03-21T21:46:27.842Z,65.60
2018-03-21T21:48:55.277Z,66.10
2018-03-21T21:51:22.737Z,65.70
2018-03-21T21:53:50.161Z,65.80
2018-03-21T21:56:17.625Z,65.30
2018-03-21T21:58:45.067Z,65.80
2018-03-21T22:01:12.540Z,66.70
2018-03-21T22:03:40.001Z,66.70
2018-03-21T22:06:07.452Z,67.40
2018-03-21T22:08:34.904Z,67.40
2018-03-21T22:11:02.375Z,67.10
2018-03-21T22:13:29.804Z,67.10
2018-03-21T22:15:57.255Z,67.50
2018-03-21T22:18:24.708Z,68.00
2018-03-21T22:20:52.156Z,67.50
2018-03-21T22:23:19.595Z,69.00
2018-03-21T22:25:47.040Z,70.00
2018-03-21T22:28:14.572Z,71.00
2018-03-21T22:30:42.040Z,71.90
2018-03-21T22:33:09.496Z,72.70
2018-03-21T22:35:36.936Z,73.30
2018-03-21T22:38:04.396Z,74.70
2018-03-21T22:40:31.836Z,74.20
2018-03-21T22:42:59.287Z,74.10
2018-03-21T22:45:26.765Z,75.40
2018-03-21T22:47:54.221Z,75.90
2018-03-21T22:50:21.679Z,77.10
2018-03-21T22:52:49.133Z,77.60
2018-03-21T22:55:17.335Z,78.80
2018-03-21T22:57:44.788Z,78.80
2018-03-21T23:00:12.238Z,79.60
2018-03-21T23:02:39.690Z,81.10
2018-03-21T23:05:07.140Z,82.30
2018-03-21T23:07:34.581Z,82.70
2018-03-21T23:10:02.044Z,82.90
2018-03-21T23:12:29.495Z,83.20
2018-03-21T23:14:56.927Z,82.90
2018-03-21T23:17:24.383Z,82.70
2018-03-21T23:19:51.831Z,83.00
2018-03-21T23:22:19.273Z,83.50
2018-03-21T23:24:46.735Z,83.20
2018-03-21T23:27:14.160Z,83.40
2018-03-21T23:29:41.608Z,83.20
2018-03-21T23:32:09.048Z,82.60
2018-03-21T23:34:36.547Z,82.60
2018-03-21T23:37:04.008Z,81.90
2018-03-21T23:39:31.464Z,82.50
2018-03-21T23:41:58.894Z,81.40
2018-03-21T23:44:26.336Z,81.60
2018-03-21T23:46:53.804Z,81.50
2018-03-21T23:49:21.250Z,81.50
2018-03-21T23:51:48.688Z,81.30
2018-03-21T23:54:16.144Z,80.80
2018-03-21T23:56:43.652Z,81.00
2018-03-21T23:59:11.112Z,80.60
